Adriatic Princess — IVPQ — position and weather

sailwx.info

Track history (hours):
 
Tides and Currents Weather Stations Pressure Air Temp Water Temp Dewpoint Dewpoint Depression Visibility Wind Speed Wind Dir Waves Ship Positions

Adriatic Princess

Last reported at 2014-Sep-16 05:33 UTC. Time now 2014-Sep-17 05:37 UTC.
Position N 40°49' E 014°07'.

Length 32 m; draft 1.8 m.

Type: Passenger vessel. MMSI: 247165700.

Date/timePositionNaut miles runAvg speedWind from/ knotsBaromVisibWave heightAir tempDewpointWater temp
2014-Sep-16 05:33N 40°49' E 014°07'0 0.0
2014-Sep-16 04:33N 40°49' E 014°07'0 0.0
2014-Sep-16 03:33N 40°49' E 014°07'0 0.0
2014-Sep-16 02:33N 40°49' E 014°07'0 0.0
2014-Sep-16 01:33N 40°49' E 014°07'0 0.0
2014-Sep-16 00:33N 40°49' E 014°07'0 0.0
2014-Sep-15 23:33N 40°49' E 014°07'0 0.0
2014-Sep-15 22:34N 40°49' E 014°07'0 0.0
2014-Sep-15 21:34N 40°49' E 014°07'0 0.0
2014-Sep-15 20:34N 40°49' E 014°07'0 0.0
2014-Sep-15 19:34N 40°49' E 014°07'0 0.0
2014-Sep-15 18:34N 40°49' E 014°07'0 0.0
2014-Sep-15 17:33N 40°49' E 014°07'0 0.0
2014-Sep-15 16:33N 40°49' E 014°07'0 0.0
2014-Sep-15 15:34N 40°49' E 014°07'0 0.0
2014-Sep-15 14:34N 40°49' E 014°07'0 0.0
2014-Sep-15 13:34N 40°49' E 014°07'0 0.0
2014-Sep-15 12:33N 40°49' E 014°07'0 0.0
2014-Sep-15 11:34N 40°49' E 014°07'0 0.0
2014-Sep-15 10:34N 40°49' E 014°07'0 0.0
2014-Sep-15 09:34N 40°49' E 014°07'0 0.0
2014-Sep-15 08:33N 40°49' E 014°07'0 0.0
2014-Sep-15 07:34N 40°49' E 014°07'0 0.0
2014-Sep-15 06:34N 40°49' E 014°07'0 0.0
2014-Sep-15 05:34N 40°49' E 014°07'0 0.0
2014-Sep-15 04:34N 40°49' E 014°07'0 0.0
2014-Sep-15 03:33N 40°49' E 014°07'0 0.0
2014-Sep-15 02:34N 40°49' E 014°07'0 0.0
2014-Sep-15 01:34N 40°49' E 014°07'0 0.0
2014-Sep-15 00:33N 40°49' E 014°07'0 0.0
2014-Sep-14 23:34N 40°49' E 014°07'0 0.0
2014-Sep-14 22:34N 40°49' E 014°07'0 0.0
2014-Sep-14 21:33N 40°49' E 014°07'0 0.0
2014-Sep-14 20:33N 40°49' E 014°07'0 0.0
2014-Sep-14 19:34N 40°49' E 014°07'0 0.0
2014-Sep-14 18:34N 40°49' E 014°07'0 0.3
2014-Sep-14 17:34N 40°49' E 014°07'8 8.2
2014-Sep-14 16:33N 40°45' E 013°57'8 7.6
2014-Sep-14 15:34N 40°49' E 014°06'9 8.6
2014-Sep-14 14:33N 40°45' E 013°56'0 0.0
2014-Sep-14 13:33N 40°45' E 013°56'0 0.0
2014-Sep-14 12:33N 40°45' E 013°56'5 5.4
2014-Sep-14 11:34N 40°46' E 014°03'2 1.6
2014-Sep-14 10:34N 40°46' E 014°01'1 0.5
2014-Sep-14 09:33N 40°46' E 014°02'5 5.0
2014-Sep-14 08:33N 40°49' E 014°07'9 9.4
2014-Sep-14 07:34N 40°45' E 013°56'8 7.8
2014-Sep-14 06:34N 40°47' E 014°06'2 2.2
2014-Sep-14 05:33N 40°49' E 014°07'0 0.0
2014-Sep-14 04:33N 40°49' E 014°07'0 0.0
2014-Sep-14 03:33N 40°49' E 014°07'0 0.0
2014-Sep-14 02:33N 40°49' E 014°07'0 0.0
2014-Sep-14 01:33N 40°49' E 014°07'0 0.0
2014-Sep-13 21:33N 40°49' E 014°07'0 0.0
2014-Sep-13 20:33N 40°49' E 014°07'0 0.0
2014-Sep-13 19:33N 40°49' E 014°07'0 0.0
2014-Sep-13 18:33N 40°49' E 014°07'0 0.4
2014-Sep-13 17:34N 40°49' E 014°07'9 9.0
2014-Sep-13 16:33N 40°45' E 013°56'9 8.9
2014-Sep-13 15:33N 40°49' E 014°06'9 8.9
2014-Sep-13 14:34N 40°45' E 013°56'0 0.0
2014-Sep-13 13:33N 40°45' E 013°56'0 0.0
2014-Sep-13 12:33N 40°45' E 013°56'6 5.8
2014-Sep-13 11:33N 40°46' E 014°04'2 2.0
2014-Sep-13 10:33N 40°46' E 014°01'1 0.8
2014-Sep-13 09:33N 40°46' E 014°00'6 6.2
2014-Sep-13 08:33N 40°49' E 014°07'9 9.4
2014-Sep-13 07:33N 40°45' E 013°56'8 7.8
2014-Sep-13 06:33N 40°47' E 014°06'2 2.3
2014-Sep-13 05:33N 40°49' E 014°07'0 0.0
2014-Sep-13 04:33N 40°49' E 014°07'0 0.0
2014-Sep-13 03:33N 40°49' E 014°07'0 0.0
2014-Sep-13 02:33N 40°49' E 014°07'0 0.0
2014-Sep-13 01:33N 40°49' E 014°07'0 0.0
2014-Sep-13 00:33N 40°49' E 014°07'0 0.0
2014-Sep-12 23:33N 40°49' E 014°07'0 0.0
2014-Sep-12 22:33N 40°49' E 014°07'0 0.0
2014-Sep-12 21:33N 40°49' E 014°07'0 0.0
2014-Sep-12 20:33N 40°49' E 014°07'0 0.0
2014-Sep-12 19:33N 40°49' E 014°07'0 0.0
2014-Sep-12 18:33N 40°49' E 014°07'0 0.0
2014-Sep-12 17:33N 40°49' E 014°07'9 9.4
2014-Sep-12 16:33N 40°45' E 013°56'9 8.8
2014-Sep-12 15:33N 40°49' E 014°06'1 0.6
2014-Sep-12 14:33N 40°49' E 014°07'0 0.1
2014-Sep-12 13:33N 40°49' E 014°07'0 0.0
2014-Sep-12 12:33N 40°49' E 014°07'0 0.0
2014-Sep-12 11:33N 40°49' E 014°07'5 5.4
2014-Sep-12 10:33N 40°46' E 014°01'0 0.4
2014-Sep-12 09:33N 40°46' E 014°01'6 5.8
2014-Sep-12 08:33N 40°49' E 014°07'9 9.4
2014-Sep-12 07:34N 40°45' E 013°56'8 8.2
2014-Sep-12 06:33N 40°48' E 014°06'1 1.4
2014-Sep-12 05:33N 40°49' E 014°07'0 0.0
2014-Sep-12 04:34N 40°49' E 014°07'0 0.0
2014-Sep-12 03:34N 40°49' E 014°07'0 0.0
2014-Sep-12 02:34N 40°49' E 014°07'0 0.0
2014-Sep-12 01:33N 40°49' E 014°07'0 0.0
2014-Sep-12 00:34N 40°49' E 014°07'0 0.0
2014-Sep-11 23:34N 40°49' E 014°07'0 0.0
2014-Sep-11 22:33N 40°49' E 014°07'0 0.0
2014-Sep-11 21:34N 40°49' E 014°07'0 0.0
2014-Sep-11 20:34N 40°49' E 014°07'0 0.0
2014-Sep-11 19:33N 40°49' E 014°07'0 0.0
2014-Sep-11 18:33N 40°49' E 014°07'0 0.0
2014-Sep-11 17:33N 40°49' E 014°07'9 9.4
2014-Sep-11 16:33N 40°45' E 013°56'9 9.4
2014-Sep-11 15:33N 40°49' E 014°07'0 0.0
2014-Sep-11 14:33N 40°49' E 014°07'0 0.0
2014-Sep-11 13:33N 40°49' E 014°07'0 0.0
2014-Sep-11 12:33N 40°49' E 014°07'0 0.0
2014-Sep-11 11:33N 40°49' E 014°07'6 6.2
2014-Sep-11 10:33N 40°46' E 014°00'3 2.7
2014-Sep-11 09:33N 40°46' E 014°04'4 3.9
2014-Sep-11 08:33N 40°49' E 014°07'0 0.0
2014-Sep-10 19:33N 40°49' E 014°07'0 0.0
2014-Sep-10 14:07N 40°49' E 014°07'0 0.0
2014-Sep-10 13:33N 40°49' E 014°07'0 0.0
2014-Sep-10 12:33N 40°49' E 014°07'0 0.0
2014-Sep-10 11:33N 40°49' E 014°07'5 5.2
2014-Sep-10 10:34N 40°46' E 014°02'5 2.1
2014-Sep-10 08:21N 40°49' E 014°06'1 0.0
2014-Sep-09 19:33N 40°49' E 014°07'0 0.0
2014-Sep-09 13:33N 40°49' E 014°07'0 0.0
2014-Sep-09 12:33N 40°49' E 014°07'0 0.0
2014-Sep-09 11:33N 40°49' E 014°07'0 0.0
2014-Sep-08 19:30N 40°49' E 014°07'0 0.0
2014-Sep-08 18:33N 40°49' E 014°07'4 0.5
2014-Sep-08 09:27N 40°46' E 014°03'4 4.9
2014-Sep-08 08:33N 40°49' E 014°07'9 0.6
2014-Sep-07 16:28N 40°45' E 013°57'0 0.1
2014-Sep-07 13:06N 40°45' E 013°56'0 0.0
2014-Sep-07 12:33N 40°45' E 013°56'7 6.4
2014-Sep-07 11:28N 40°46' E 014°05'4 4.0
2014-Sep-07 10:33N 40°46' E 014°00'1 0.7
2014-Sep-07 09:33N 40°46' E 014°01'5 5.3
2014-Sep-07 08:33N 40°49' E 014°07'  
Track history (hours):
 
Tides and Currents Weather Stations Pressure Air Temp Water Temp Dewpoint Dewpoint Depression Visibility Wind Speed Wind Dir Waves Ship Positions

Adriatic Princess

Last reported at 2014-Sep-16 05:33 UTC. Time now 2014-Sep-17 05:37 UTC.
Position N 40°49' E 014°07'.

Length 32 m; draft 1.8 m.

Type: Passenger vessel. MMSI: 247165700.

Date/timePositionNaut miles runAvg speedWind from/ knotsBaromVisibWave heightAir tempDewpointWater temp
2014-Sep-16 05:33N 40°49' E 014°07'0 0.0
2014-Sep-16 04:33N 40°49' E 014°07'0 0.0
2014-Sep-16 03:33N 40°49' E 014°07'0 0.0
2014-Sep-16 02:33N 40°49' E 014°07'0 0.0
2014-Sep-16 01:33N 40°49' E 014°07'0 0.0
2014-Sep-16 00:33N 40°49' E 014°07'0 0.0
2014-Sep-15 23:33N 40°49' E 014°07'0 0.0
2014-Sep-15 22:34N 40°49' E 014°07'0 0.0
2014-Sep-15 21:34N 40°49' E 014°07'0 0.0
2014-Sep-15 20:34N 40°49' E 014°07'0 0.0
2014-Sep-15 19:34N 40°49' E 014°07'0 0.0
2014-Sep-15 18:34N 40°49' E 014°07'0 0.0
2014-Sep-15 17:33N 40°49' E 014°07'0 0.0
2014-Sep-15 16:33N 40°49' E 014°07'0 0.0
2014-Sep-15 15:34N 40°49' E 014°07'0 0.0
2014-Sep-15 14:34N 40°49' E 014°07'0 0.0
2014-Sep-15 13:34N 40°49' E 014°07'0 0.0
2014-Sep-15 12:33N 40°49' E 014°07'0 0.0
2014-Sep-15 11:34N 40°49' E 014°07'0 0.0
2014-Sep-15 10:34N 40°49' E 014°07'0 0.0
2014-Sep-15 09:34N 40°49' E 014°07'0 0.0
2014-Sep-15 08:33N 40°49' E 014°07'0 0.0
2014-Sep-15 07:34N 40°49' E 014°07'0 0.0
2014-Sep-15 06:34N 40°49' E 014°07'0 0.0
2014-Sep-15 05:34N 40°49' E 014°07'0 0.0
2014-Sep-15 04:34N 40°49' E 014°07'0 0.0
2014-Sep-15 03:33N 40°49' E 014°07'0 0.0
2014-Sep-15 02:34N 40°49' E 014°07'0 0.0
2014-Sep-15 01:34N 40°49' E 014°07'0 0.0
2014-Sep-15 00:33N 40°49' E 014°07'0 0.0
2014-Sep-14 23:34N 40°49' E 014°07'0 0.0
2014-Sep-14 22:34N 40°49' E 014°07'0 0.0
2014-Sep-14 21:33N 40°49' E 014°07'0 0.0
2014-Sep-14 20:33N 40°49' E 014°07'0 0.0
2014-Sep-14 19:34N 40°49' E 014°07'0 0.0
2014-Sep-14 18:34N 40°49' E 014°07'0 0.3
2014-Sep-14 17:34N 40°49' E 014°07'8 8.2
2014-Sep-14 16:33N 40°45' E 013°57'8 7.6
2014-Sep-14 15:34N 40°49' E 014°06'9 8.6
2014-Sep-14 14:33N 40°45' E 013°56'0 0.0
2014-Sep-14 13:33N 40°45' E 013°56'0 0.0
2014-Sep-14 12:33N 40°45' E 013°56'5 5.4
2014-Sep-14 11:34N 40°46' E 014°03'2 1.6
2014-Sep-14 10:34N 40°46' E 014°01'1 0.5
2014-Sep-14 09:33N 40°46' E 014°02'5 5.0
2014-Sep-14 08:33N 40°49' E 014°07'9 9.4
2014-Sep-14 07:34N 40°45' E 013°56'8 7.8
2014-Sep-14 06:34N 40°47' E 014°06'2 2.2
2014-Sep-14 05:33N 40°49' E 014°07'0 0.0
2014-Sep-14 04:33N 40°49' E 014°07'0 0.0
2014-Sep-14 03:33N 40°49' E 014°07'0 0.0
2014-Sep-14 02:33N 40°49' E 014°07'0 0.0
2014-Sep-14 01:33N 40°49' E 014°07'0 0.0
2014-Sep-13 21:33N 40°49' E 014°07'0 0.0
2014-Sep-13 20:33N 40°49' E 014°07'0 0.0
2014-Sep-13 19:33N 40°49' E 014°07'0 0.0
2014-Sep-13 18:33N 40°49' E 014°07'0 0.4
2014-Sep-13 17:34N 40°49' E 014°07'9 9.0
2014-Sep-13 16:33N 40°45' E 013°56'9 8.9
2014-Sep-13 15:33N 40°49' E 014°06'9 8.9
2014-Sep-13 14:34N 40°45' E 013°56'0 0.0
2014-Sep-13 13:33N 40°45' E 013°56'0 0.0
2014-Sep-13 12:33N 40°45' E 013°56'6 5.8
2014-Sep-13 11:33N 40°46' E 014°04'2 2.0
2014-Sep-13 10:33N 40°46' E 014°01'1 0.8
2014-Sep-13 09:33N 40°46' E 014°00'6 6.2
2014-Sep-13 08:33N 40°49' E 014°07'9 9.4
2014-Sep-13 07:33N 40°45' E 013°56'8 7.8
2014-Sep-13 06:33N 40°47' E 014°06'2 2.3
2014-Sep-13 05:33N 40°49' E 014°07'0 0.0
2014-Sep-13 04:33N 40°49' E 014°07'0 0.0
2014-Sep-13 03:33N 40°49' E 014°07'0 0.0
2014-Sep-13 02:33N 40°49' E 014°07'0 0.0
2014-Sep-13 01:33N 40°49' E 014°07'0 0.0
2014-Sep-13 00:33N 40°49' E 014°07'0 0.0
2014-Sep-12 23:33N 40°49' E 014°07'0 0.0
2014-Sep-12 22:33N 40°49' E 014°07'0 0.0
2014-Sep-12 21:33N 40°49' E 014°07'0 0.0
2014-Sep-12 20:33N 40°49' E 014°07'0 0.0
2014-Sep-12 19:33N 40°49' E 014°07'0 0.0
2014-Sep-12 18:33N 40°49' E 014°07'0 0.0
2014-Sep-12 17:33N 40°49' E 014°07'9 9.4
2014-Sep-12 16:33N 40°45' E 013°56'9 8.8
2014-Sep-12 15:33N 40°49' E 014°06'1 0.6
2014-Sep-12 14:33N 40°49' E 014°07'0 0.1
2014-Sep-12 13:33N 40°49' E 014°07'0 0.0
2014-Sep-12 12:33N 40°49' E 014°07'0 0.0
2014-Sep-12 11:33N 40°49' E 014°07'5 5.4
2014-Sep-12 10:33N 40°46' E 014°01'0 0.4
2014-Sep-12 09:33N 40°46' E 014°01'6 5.8
2014-Sep-12 08:33N 40°49' E 014°07'9 9.4
2014-Sep-12 07:34N 40°45' E 013°56'8 8.2
2014-Sep-12 06:33N 40°48' E 014°06'1 1.4
2014-Sep-12 05:33N 40°49' E 014°07'0 0.0
2014-Sep-12 04:34N 40°49' E 014°07'0 0.0
2014-Sep-12 03:34N 40°49' E 014°07'0 0.0
2014-Sep-12 02:34N 40°49' E 014°07'0 0.0
2014-Sep-12 01:33N 40°49' E 014°07'0 0.0
2014-Sep-12 00:34N 40°49' E 014°07'0 0.0
2014-Sep-11 23:34N 40°49' E 014°07'0 0.0
2014-Sep-11 22:33N 40°49' E 014°07'0 0.0
2014-Sep-11 21:34N 40°49' E 014°07'0 0.0
2014-Sep-11 20:34N 40°49' E 014°07'0 0.0
2014-Sep-11 19:33N 40°49' E 014°07'0 0.0
2014-Sep-11 18:33N 40°49' E 014°07'0 0.0
2014-Sep-11 17:33N 40°49' E 014°07'9 9.4
2014-Sep-11 16:33N 40°45' E 013°56'9 9.4
2014-Sep-11 15:33N 40°49' E 014°07'0 0.0
2014-Sep-11 14:33N 40°49' E 014°07'0 0.0
2014-Sep-11 13:33N 40°49' E 014°07'0 0.0
2014-Sep-11 12:33N 40°49' E 014°07'0 0.0
2014-Sep-11 11:33N 40°49' E 014°07'6 6.2
2014-Sep-11 10:33N 40°46' E 014°00'3 2.7
2014-Sep-11 09:33N 40°46' E 014°04'4 3.9
2014-Sep-11 08:33N 40°49' E 014°07'0 0.0
2014-Sep-10 19:33N 40°49' E 014°07'0 0.0
2014-Sep-10 14:07N 40°49' E 014°07'0 0.0
2014-Sep-10 13:33N 40°49' E 014°07'0 0.0
2014-Sep-10 12:33N 40°49' E 014°07'0 0.0
2014-Sep-10 11:33N 40°49' E 014°07'5 5.2
2014-Sep-10 10:34N 40°46' E 014°02'5 2.1
2014-Sep-10 08:21N 40°49' E 014°06'1 0.0
2014-Sep-09 19:33N 40°49' E 014°07'0 0.0
2014-Sep-09 13:33N 40°49' E 014°07'0 0.0
2014-Sep-09 12:33N 40°49' E 014°07'0 0.0
2014-Sep-09 11:33N 40°49' E 014°07'0 0.0
2014-Sep-08 19:30N 40°49' E 014°07'0 0.0
2014-Sep-08 18:33N 40°49' E 014°07'4 0.5
2014-Sep-08 09:27N 40°46' E 014°03'4 4.9
2014-Sep-08 08:33N 40°49' E 014°07'9 0.6
2014-Sep-07 16:28N 40°45' E 013°57'0 0.1
2014-Sep-07 13:06N 40°45' E 013°56'0 0.0
2014-Sep-07 12:33N 40°45' E 013°56'7 6.4
2014-Sep-07 11:28N 40°46' E 014°05'4 4.0
2014-Sep-07 10:33N 40°46' E 014°00'1 0.7
2014-Sep-07 09:33N 40°46' E 014°01'5 5.3
2014-Sep-07 08:33N 40°49' E 014°07'  

Dump ship's entire track history